Drew Devall — WDB6048 — position and weather

sailwx.info

Track history (hours):
 
Tides and Currents Weather Stations Pressure Air Temp Water Temp Dewpoint Dewpoint Depression Visibility Wind Speed Wind Dir Waves Ship Positions

Drew Devall

Owner: Drew Devall, Sulphur, LA. More information available from US FCC via Universal Licensing System and Coast Guard Vessel Documentation Center.

Last reported at 2017-Dec-09 23:59 UTC. Time now 2017-Dec-12 02:49 UTC.
Position N 29°44' W 095°09'.

Length 17 m; draft 3 m.

Type: Towing. MMSI: 366916860.

Date/timePositionNaut miles runAvg speedWind from/ knotsBaromVisibWave heightAir tempDewpointWater temp
2017-Dec-09 23:59N 29°44' W 095°09'3 6.8
2017-Dec-09 23:28N 29°43' W 095°13'2 0.8
2017-Dec-09 20:32N 29°44' W 095°16'0 0.0
2017-Dec-09 12:50N 29°44' W 095°16'1 3.1
2017-Dec-09 12:30N 29°43' W 095°15'4 7.4
2017-Dec-09 12:00N 29°45' W 095°11'4 7.4
2017-Dec-09 11:30N 29°45' W 095°07'2 0.2
2017-Dec-09 05:17N 29°46' W 095°06'3 0.1
2017-Dec-08 00:46N 29°44' W 095°03'2 7.0
2017-Dec-08 00:25N 29°42' W 095°01'3 7.5
2017-Dec-08 00:00N 29°40' W 094°59'4 8.5
2017-Dec-07 23:30N 29°36' W 094°57'4 8.4
2017-Dec-07 23:00N 29°33' W 094°54'2 0.1
2017-Dec-07 04:20N 29°34' W 094°55'2 7.5
2017-Dec-07 04:00N 29°36' W 094°57'4 7.4
2017-Dec-07 03:30N 29°40' W 094°58'4 7.3
2017-Dec-07 03:01N 29°42' W 095°01'7 5.8
2017-Dec-07 01:46N 29°44' W 095°09'2 7.3
2017-Dec-07 01:29N 29°45' W 095°12'3 6.1
2017-Dec-07 00:55N 29°44' W 095°15'  
2017-Dec-04 10:30N 29°40' W 094°59'4 7.6
2017-Dec-04 10:00N 29°37' W 094°57'4 7.7
2017-Dec-04 09:30N 29°33' W 094°55'79 4.5
2017-Dec-03 15:43N 30°04' W 093°30'1 4.1
2017-Dec-03 15:29N 30°04' W 093°29'1 0.2
2017-Dec-03 09:23N 30°04' W 093°28'3 5.9
2017-Dec-03 08:56N 30°04' W 093°25'3 5.9
2017-Dec-03 08:30N 30°04' W 093°22'3 5.2
2017-Dec-03 08:00N 30°05' W 093°20'1 1.5
2017-Dec-03 07:17N 30°06' W 093°19'0 0.0
2017-Dec-03 06:47N 30°06' W 093°19'0 0.7
2017-Dec-03 06:29N 30°06' W 093°19'1 1.6
2017-Dec-03 05:54N 30°06' W 093°18'0 0.0
2017-Dec-03 05:24N 30°06' W 093°18'1 2.3
2017-Dec-03 04:55N 30°05' W 093°18'1 2.5
2017-Dec-03 04:30N 30°05' W 093°17'1 0.9
2017-Dec-03 03:54N 30°04' W 093°16'1 3.7
2017-Dec-03 03:30N 30°03' W 093°16'3 5.3
2017-Dec-03 02:54N 30°00' W 093°14'3 5.7
2017-Dec-03 02:25N 29°58' W 093°12'2 5.9
2017-Dec-03 02:00N 29°56' W 093°10'3 5.6
2017-Dec-03 01:30N 29°56' W 093°07'42 5.7
2017-Dec-02 18:02N 29°50' W 092°18'0 5.7
2017-Dec-02 17:59N 29°50' W 092°18'3 5.8
2017-Dec-02 17:30N 29°48' W 092°15'3 5.6
2017-Dec-02 17:00N 29°47' W 092°12'3 5.2
2017-Dec-02 16:30N 29°47' W 092°09'3 5.7
2017-Dec-02 16:00N 29°48' W 092°06'3 5.6
2017-Dec-02 15:30N 29°49' W 092°03'3 5.6
2017-Dec-02 15:00N 29°50' W 092°00'  
Track history (hours):
 
Tides and Currents Weather Stations Pressure Air Temp Water Temp Dewpoint Dewpoint Depression Visibility Wind Speed Wind Dir Waves Ship Positions

Drew Devall

Owner: Drew Devall, Sulphur, LA. More information available from US FCC via Universal Licensing System and Coast Guard Vessel Documentation Center.

Last reported at 2017-Dec-09 23:59 UTC. Time now 2017-Dec-12 02:49 UTC.
Position N 29°44' W 095°09'.

Length 17 m; draft 3 m.

Type: Towing. MMSI: 366916860.

Date/timePositionNaut miles runAvg speedWind from/ knotsBaromVisibWave heightAir tempDewpointWater temp
2017-Dec-09 23:59N 29°44' W 095°09'3 6.8
2017-Dec-09 23:28N 29°43' W 095°13'2 0.8
2017-Dec-09 20:32N 29°44' W 095°16'0 0.0
2017-Dec-09 12:50N 29°44' W 095°16'1 3.1
2017-Dec-09 12:30N 29°43' W 095°15'4 7.4
2017-Dec-09 12:00N 29°45' W 095°11'4 7.4
2017-Dec-09 11:30N 29°45' W 095°07'2 0.2
2017-Dec-09 05:17N 29°46' W 095°06'3 0.1
2017-Dec-08 00:46N 29°44' W 095°03'2 7.0
2017-Dec-08 00:25N 29°42' W 095°01'3 7.5
2017-Dec-08 00:00N 29°40' W 094°59'4 8.5
2017-Dec-07 23:30N 29°36' W 094°57'4 8.4
2017-Dec-07 23:00N 29°33' W 094°54'2 0.1
2017-Dec-07 04:20N 29°34' W 094°55'2 7.5
2017-Dec-07 04:00N 29°36' W 094°57'4 7.4
2017-Dec-07 03:30N 29°40' W 094°58'4 7.3
2017-Dec-07 03:01N 29°42' W 095°01'7 5.8
2017-Dec-07 01:46N 29°44' W 095°09'2 7.3
2017-Dec-07 01:29N 29°45' W 095°12'3 6.1
2017-Dec-07 00:55N 29°44' W 095°15'  
2017-Dec-04 10:30N 29°40' W 094°59'4 7.6
2017-Dec-04 10:00N 29°37' W 094°57'4 7.7
2017-Dec-04 09:30N 29°33' W 094°55'79 4.5
2017-Dec-03 15:43N 30°04' W 093°30'1 4.1
2017-Dec-03 15:29N 30°04' W 093°29'1 0.2
2017-Dec-03 09:23N 30°04' W 093°28'3 5.9
2017-Dec-03 08:56N 30°04' W 093°25'3 5.9
2017-Dec-03 08:30N 30°04' W 093°22'3 5.2
2017-Dec-03 08:00N 30°05' W 093°20'1 1.5
2017-Dec-03 07:17N 30°06' W 093°19'0 0.0
2017-Dec-03 06:47N 30°06' W 093°19'0 0.7
2017-Dec-03 06:29N 30°06' W 093°19'1 1.6
2017-Dec-03 05:54N 30°06' W 093°18'0 0.0
2017-Dec-03 05:24N 30°06' W 093°18'1 2.3
2017-Dec-03 04:55N 30°05' W 093°18'1 2.5
2017-Dec-03 04:30N 30°05' W 093°17'1 0.9
2017-Dec-03 03:54N 30°04' W 093°16'1 3.7
2017-Dec-03 03:30N 30°03' W 093°16'3 5.3
2017-Dec-03 02:54N 30°00' W 093°14'3 5.7
2017-Dec-03 02:25N 29°58' W 093°12'2 5.9
2017-Dec-03 02:00N 29°56' W 093°10'3 5.6
2017-Dec-03 01:30N 29°56' W 093°07'42 5.7
2017-Dec-02 18:02N 29°50' W 092°18'0 5.7
2017-Dec-02 17:59N 29°50' W 092°18'3 5.8
2017-Dec-02 17:30N 29°48' W 092°15'3 5.6
2017-Dec-02 17:00N 29°47' W 092°12'3 5.2
2017-Dec-02 16:30N 29°47' W 092°09'3 5.7
2017-Dec-02 16:00N 29°48' W 092°06'3 5.6
2017-Dec-02 15:30N 29°49' W 092°03'3 5.6
2017-Dec-02 15:00N 29°50' W 092°00'  

Dump ship's entire track history